createdAt,value
2023-06-09T00:02:20.501Z,52.02
2023-06-09T00:04:47.154Z,52.08
2023-06-09T00:07:17.223Z,52.22
2023-06-09T00:09:47.675Z,52.30
2023-06-09T00:12:15.174Z,52.28
2023-06-09T00:14:42.814Z,52.18
2023-06-09T00:17:09.656Z,52.37
2023-06-09T00:19:37.081Z,52.52
2023-06-09T00:22:04.549Z,52.59
2023-06-09T00:24:32.219Z,52.72
2023-06-09T00:26:58.791Z,52.71
2023-06-09T00:29:25.748Z,52.90
2023-06-09T00:31:52.432Z,52.84
2023-06-09T00:34:19.109Z,52.87
2023-06-09T00:36:45.708Z,52.88
2023-06-09T00:39:12.268Z,53.01
2023-06-09T00:41:39.218Z,53.19
2023-06-09T00:44:06.127Z,53.30
2023-06-09T00:46:33.590Z,53.34
2023-06-09T00:49:00.141Z,53.56
2023-06-09T00:51:26.806Z,53.45
2023-06-09T00:53:53.366Z,53.63
2023-06-09T00:56:20.910Z,53.71
2023-06-09T00:58:47.452Z,53.86
2023-06-09T01:01:14.463Z,54.07
2023-06-09T01:03:41.212Z,54.08
2023-06-09T01:06:28.034Z,54.39
2023-06-09T01:09:01.160Z,54.62
2023-06-09T01:11:34.599Z,54.79
2023-06-09T01:14:07.013Z,54.83
2023-06-09T01:16:40.306Z,54.92
2023-06-09T01:19:09.764Z,54.92
2023-06-09T01:21:42.211Z,54.90
2023-06-09T01:24:16.398Z,55.06
2023-06-09T01:26:43.468Z,55.03
2023-06-09T01:29:10.081Z,54.71
2023-06-09T01:31:36.762Z,54.87
2023-06-09T01:34:03.616Z,54.97
2023-06-09T01:36:30.148Z,54.95
2023-06-09T01:38:57.441Z,55.04
2023-06-09T01:41:24.833Z,55.01
2023-06-09T01:43:51.634Z,55.13
2023-06-09T01:46:18.215Z,55.34
2023-06-09T01:49:00.049Z,55.40
2023-06-09T01:51:56.140Z,55.61
2023-06-09T01:54:31.506Z,55.61
2023-06-09T01:56:59.267Z,55.81
2023-06-09T01:59:30.287Z,55.71
2023-06-09T02:01:57.380Z,55.70
2023-06-09T02:04:24.472Z,55.58
2023-06-09T02:06:50.999Z,55.77
2023-06-09T02:09:17.800Z,55.56
2023-06-09T02:11:50.164Z,55.75
2023-06-09T02:14:16.822Z,55.54
2023-06-09T02:16:43.450Z,55.81
2023-06-09T02:19:09.969Z,55.71
2023-06-09T02:21:36.668Z,55.71
2023-06-09T02:24:03.229Z,55.82
2023-06-09T02:26:29.755Z,55.76
2023-06-09T02:28:56.492Z,55.96
2023-06-09T02:31:23.156Z,56.01
2023-06-09T02:33:49.679Z,56.18
2023-06-09T02:36:17.506Z,56.23
2023-06-09T02:38:46.226Z,56.41
2023-06-09T02:41:12.734Z,56.24
2023-06-09T02:43:39.166Z,56.47
2023-06-09T02:46:05.854Z,56.36
2023-06-09T02:48:32.397Z,56.50
2023-06-09T02:50:58.941Z,56.44
2023-06-09T02:53:25.661Z,56.25
2023-06-09T02:55:52.334Z,56.40
2023-06-09T02:58:25.770Z,56.49
2023-06-09T03:00:53.570Z,56.71
2023-06-09T03:03:20.860Z,56.81
2023-06-09T03:05:48.972Z,56.82
2023-06-09T03:08:16.153Z,56.91
2023-06-09T03:10:43.809Z,56.71
2023-06-09T03:13:13.159Z,56.79
2023-06-09T03:15:45.264Z,56.98
2023-06-09T03:18:13.014Z,56.85
2023-06-09T03:20:39.856Z,57.06
2023-06-09T03:23:09.970Z,56.91
2023-06-09T03:25:38.379Z,57.11
2023-06-09T03:28:05.088Z,56.82
2023-06-09T03:30:34.804Z,57.04
2023-06-09T03:33:02.162Z,57.29
2023-06-09T03:35:28.796Z,57.01
2023-06-09T03:37:55.696Z,57.18
2023-06-09T03:40:22.530Z,57.37
2023-06-09T03:42:49.150Z,57.58
2023-06-09T03:45:15.998Z,57.43
2023-06-09T03:47:42.671Z,57.81
2023-06-09T03:50:10.071Z,58.03
2023-06-09T03:52:40.858Z,58.17
2023-06-09T03:55:08.456Z,58.23
2023-06-09T03:57:36.606Z,58.28
2023-06-09T04:00:04.812Z,58.27
2023-06-09T04:02:32.103Z,58.48
2023-06-09T04:04:58.782Z,58.38
2023-06-09T04:07:25.975Z,58.46
2023-06-09T04:09:52.762Z,58.23
2023-06-09T04:12:19.346Z,58.42
2023-06-09T04:14:46.972Z,58.16
2023-06-09T04:17:13.772Z,58.27
2023-06-09T04:19:40.774Z,57.94
2023-06-09T04:22:08.505Z,58.15
2023-06-09T04:24:35.633Z,58.17
2023-06-09T04:27:04.246Z,58.23
2023-06-09T04:29:34.113Z,58.45
2023-06-09T04:32:01.340Z,58.32
2023-06-09T04:34:30.260Z,58.09
2023-06-09T04:36:57.290Z,58.55
2023-06-09T04:39:29.627Z,58.42
2023-06-09T04:41:56.863Z,58.47
2023-06-09T04:44:25.659Z,58.50
2023-06-09T04:46:55.346Z,58.30
2023-06-09T04:49:24.811Z,58.43
2023-06-09T04:51:52.184Z,58.48
2023-06-09T04:54:29.610Z,58.52
2023-06-09T04:56:59.401Z,58.27
2023-06-09T04:59:26.160Z,58.27
2023-06-09T05:01:54.054Z,58.28
2023-06-09T05:04:20.969Z,58.35
2023-06-09T05:06:47.906Z,58.32
2023-06-09T05:09:14.846Z,58.37
2023-06-09T05:11:42.152Z,58.25
2023-06-09T05:14:09.121Z,58.34
2023-06-09T05:16:36.345Z,58.37
2023-06-09T05:19:05.683Z,58.33
2023-06-09T05:21:32.316Z,58.51
2023-06-09T05:23:59.154Z,58.36
2023-06-09T05:26:26.785Z,58.28
2023-06-09T05:28:53.908Z,58.03
2023-06-09T05:31:20.544Z,57.98
2023-06-09T05:33:47.741Z,58.03
2023-06-09T05:36:14.393Z,58.30
2023-06-09T05:38:46.918Z,58.19
2023-06-09T05:41:15.811Z,58.31
2023-06-09T05:43:42.488Z,58.24
2023-06-09T05:46:08.989Z,58.02
2023-06-09T05:48:35.538Z,58.28
2023-06-09T05:51:01.996Z,58.23
2023-06-09T05:53:28.732Z,58.19
2023-06-09T05:55:55.442Z,58.04
2023-06-09T05:58:21.950Z,57.92
2023-06-09T06:00:48.581Z,57.90
2023-06-09T06:03:15.456Z,57.76
2023-06-09T06:05:42.119Z,57.76
2023-06-09T06:08:08.640Z,57.20
2023-06-09T06:10:35.207Z,57.15
2023-06-09T06:13:03.125Z,57.49
2023-06-09T06:15:29.632Z,57.72
2023-06-09T06:17:56.229Z,57.49
2023-06-09T06:20:22.813Z,57.35
2023-06-09T06:22:49.957Z,57.20
2023-06-09T06:25:16.475Z,57.10
2023-06-09T06:27:46.105Z,56.66
2023-06-09T06:30:14.011Z,56.27
2023-06-09T06:32:48.669Z,56.22
2023-06-09T06:35:21.805Z,55.95
2023-06-09T06:37:48.361Z,54.75
2023-06-09T06:40:15.071Z,54.66
2023-06-09T06:42:41.547Z,54.54
2023-06-09T06:45:15.159Z,53.38
2023-06-09T06:47:42.752Z,53.49
2023-06-09T06:50:09.968Z,53.45
2023-06-09T06:52:36.975Z,53.48
2023-06-09T06:55:03.568Z,52.76
2023-06-09T06:57:30.069Z,53.08
2023-06-09T07:00:00.086Z,52.48
2023-06-09T07:02:30.476Z,52.53
2023-06-09T07:04:57.949Z,52.72
2023-06-09T07:07:27.247Z,50.78
2023-06-09T07:09:54.173Z,51.22
2023-06-09T07:12:20.821Z,51.04
2023-06-09T07:14:47.402Z,51.28
2023-06-09T07:17:14.047Z,50.85
2023-06-09T07:19:40.763Z,49.14
2023-06-09T07:22:07.351Z,50.08
2023-06-09T07:24:34.029Z,49.89
2023-06-09T07:27:00.507Z,49.81
2023-06-09T07:29:27.067Z,49.45
2023-06-09T07:31:53.733Z,46.80
2023-06-09T07:34:20.304Z,48.52
2023-06-09T07:36:51.234Z,48.45
2023-06-09T07:39:18.284Z,47.59
2023-06-09T07:41:44.812Z,46.51
2023-06-09T07:44:11.252Z,47.33
2023-06-09T07:46:37.789Z,46.71
2023-06-09T07:49:04.596Z,45.82
2023-06-09T07:51:31.716Z,46.39
2023-06-09T07:53:58.245Z,46.28
2023-06-09T07:56:24.738Z,46.56
2023-06-09T07:58:51.646Z,45.96
2023-06-09T08:01:18.202Z,46.68
2023-06-09T08:03:44.890Z,46.38
2023-06-09T08:06:11.413Z,46.11
2023-06-09T08:08:38.509Z,45.61
2023-06-09T08:11:05.054Z,44.79
2023-06-09T08:13:31.739Z,44.15
2023-06-09T08:15:58.536Z,43.01
2023-06-09T08:18:25.140Z,42.65
2023-06-09T08:20:52.542Z,43.66
2023-06-09T08:23:21.843Z,43.88
2023-06-09T08:25:48.882Z,42.16
2023-06-09T08:28:15.663Z,41.80
2023-06-09T08:30:42.156Z,40.87
2023-06-09T08:33:09.177Z,41.04
2023-06-09T08:35:35.765Z,40.72
2023-06-09T08:38:02.450Z,41.71
2023-06-09T08:40:28.938Z,41.23
2023-06-09T08:42:56.685Z,41.25
2023-06-09T08:45:23.846Z,40.76
2023-06-09T08:47:51.139Z,41.09
2023-06-09T08:50:19.534Z,40.99
2023-06-09T08:52:46.057Z,39.52
2023-06-09T08:55:13.535Z,39.32
2023-06-09T08:57:42.413Z,38.09
2023-06-09T09:00:11.114Z,39.34
2023-06-09T09:02:37.824Z,38.03
2023-06-09T09:05:04.501Z,38.45
2023-06-09T09:07:31.286Z,37.82
2023-06-09T09:09:59.795Z,38.38
2023-06-09T09:12:26.383Z,38.70
2023-06-09T09:14:52.845Z,37.38
2023-06-09T09:17:19.450Z,37.78
2023-06-09T09:19:46.980Z,36.73
2023-06-09T09:22:13.811Z,36.42
2023-06-09T09:24:46.844Z,36.77
2023-06-09T09:27:17.863Z,36.34
2023-06-09T09:29:45.100Z,35.81
2023-06-09T09:32:11.588Z,36.33
2023-06-09T09:34:41.012Z,34.92
2023-06-09T09:37:11.173Z,35.88
2023-06-09T09:39:47.657Z,36.23
2023-06-09T09:42:14.165Z,34.86
2023-06-09T09:44:43.588Z,35.16
2023-06-09T09:47:11.435Z,33.79
2023-06-09T09:49:37.961Z,34.63
2023-06-09T09:52:06.628Z,34.66
2023-06-09T09:54:33.102Z,35.66
2023-06-09T09:56:59.896Z,34.72
2023-06-09T09:59:27.063Z,34.06
2023-06-09T10:01:54.858Z,34.58
2023-06-09T10:04:25.158Z,34.48
2023-06-09T10:06:57.724Z,34.02
2023-06-09T10:09:24.587Z,33.13
2023-06-09T10:11:52.765Z,34.52
2023-06-09T10:14:19.681Z,34.39
2023-06-09T10:16:46.383Z,33.35
2023-06-09T10:19:13.016Z,33.44
2023-06-09T10:21:40.515Z,32.97
2023-06-09T10:24:08.103Z,32.67
2023-06-09T10:26:35.448Z,33.19
2023-06-09T10:29:02.076Z,33.56
2023-06-09T10:31:30.729Z,32.31
2023-06-09T10:33:57.276Z,32.70
2023-06-09T10:36:23.959Z,33.22
2023-06-09T10:38:54.734Z,32.25
2023-06-09T10:41:32.778Z,32.92
2023-06-09T10:44:19.187Z,31.81
2023-06-09T10:46:47.034Z,32.53
2023-06-09T10:49:42.127Z,32.58
2023-06-09T10:52:10.009Z,31.18
2023-06-09T10:54:36.959Z,31.65
2023-06-09T10:57:08.242Z,32.40
2023-06-09T10:59:37.813Z,31.91
2023-06-09T11:02:07.366Z,32.69
2023-06-09T11:04:46.439Z,31.26
2023-06-09T11:07:16.318Z,30.87
2023-06-09T11:09:52.193Z,30.76
2023-06-09T11:12:28.297Z,30.51
2023-06-09T11:15:01.276Z,30.95
2023-06-09T11:17:35.112Z,30.93
2023-06-09T11:20:11.272Z,30.94
2023-06-09T11:22:55.537Z,30.98
2023-06-09T11:25:23.424Z,29.87
2023-06-09T11:27:56.158Z,30.87
2023-06-09T11:30:23.253Z,31.05
2023-06-09T11:32:53.493Z,30.45
2023-06-09T11:35:32.276Z,30.32
2023-06-09T11:37:58.933Z,30.09
2023-06-09T11:40:26.008Z,30.36
2023-06-09T11:42:52.550Z,30.10
2023-06-09T11:45:19.157Z,30.84
2023-06-09T11:47:46.440Z,31.03
2023-06-09T11:50:13.912Z,30.79
2023-06-09T11:52:41.579Z,30.61
2023-06-09T11:55:08.879Z,30.84
2023-06-09T11:57:35.829Z,31.53
2023-06-09T12:00:15.712Z,31.09
2023-06-09T12:02:42.871Z,30.92
2023-06-09T12:05:10.227Z,30.33
2023-06-09T12:07:37.061Z,30.38
2023-06-09T12:10:04.644Z,29.82
2023-06-09T12:12:31.312Z,30.49
2023-06-09T12:14:57.836Z,29.03
2023-06-09T12:17:24.556Z,30.35
2023-06-09T12:19:52.505Z,30.02
2023-06-09T12:22:19.173Z,29.70
2023-06-09T12:24:45.847Z,29.76
2023-06-09T12:27:12.967Z,28.94
2023-06-09T12:29:40.159Z,29.51
2023-06-09T12:32:07.493Z,29.16
2023-06-09T12:34:34.072Z,29.22
2023-06-09T12:37:00.563Z,30.26
2023-06-09T12:39:31.329Z,28.18
2023-06-09T12:41:57.998Z,29.07
2023-06-09T12:44:27.530Z,27.96
2023-06-09T12:46:57.201Z,28.38
2023-06-09T12:49:33.288Z,27.78
2023-06-09T12:52:00.366Z,27.15
2023-06-09T12:54:28.028Z,27.40
2023-06-09T12:56:55.380Z,27.78
2023-06-09T12:59:21.918Z,27.44
2023-06-09T13:01:48.889Z,27.29
2023-06-09T13:04:16.868Z,27.26
2023-06-09T13:06:43.916Z,26.85
2023-06-09T13:09:10.488Z,26.15
2023-06-09T13:11:37.083Z,26.65
2023-06-09T13:14:03.709Z,26.23
2023-06-09T13:16:30.841Z,25.58
2023-06-09T13:18:57.328Z,26.10
2023-06-09T13:21:34.802Z,25.90
2023-06-09T13:24:09.448Z,25.80
2023-06-09T13:26:36.144Z,26.81
2023-06-09T13:29:02.677Z,26.29
2023-06-09T13:31:29.187Z,25.81
2023-06-09T13:33:55.702Z,25.87
2023-06-09T13:36:22.245Z,26.08
2023-06-09T13:38:48.779Z,25.99
2023-06-09T13:41:16.213Z,25.69
2023-06-09T13:43:42.914Z,26.72
2023-06-09T13:46:09.442Z,26.31
2023-06-09T13:48:36.336Z,25.94
2023-06-09T13:51:03.226Z,26.38
2023-06-09T13:53:29.830Z,27.18
2023-06-09T13:55:56.460Z,27.72
2023-06-09T13:58:23.260Z,27.81
2023-06-09T14:00:49.908Z,27.27
2023-06-09T14:03:16.803Z,27.03
2023-06-09T14:05:44.364Z,27.28
2023-06-09T14:08:11.133Z,26.68
2023-06-09T14:10:37.619Z,26.19
2023-06-09T14:13:04.536Z,26.67
2023-06-09T14:15:31.238Z,26.90
2023-06-09T14:17:58.364Z,27.22
2023-06-09T14:20:27.299Z,27.41
2023-06-09T14:22:53.932Z,27.18
2023-06-09T14:25:22.673Z,26.80
2023-06-09T14:27:50.363Z,26.53
2023-06-09T14:30:19.158Z,27.10
2023-06-09T14:32:48.412Z,27.97
2023-06-09T14:35:23.431Z,27.77
2023-06-09T14:37:54.104Z,27.44
2023-06-09T14:40:21.312Z,27.31
2023-06-09T14:42:50.151Z,27.92
2023-06-09T14:45:21.611Z,27.88
2023-06-09T14:47:49.708Z,27.29
2023-06-09T14:50:23.354Z,27.92
2023-06-09T14:52:53.035Z,27.51
2023-06-09T14:55:24.068Z,27.75
2023-06-09T14:57:51.450Z,27.38
2023-06-09T15:00:19.001Z,27.93
2023-06-09T15:02:45.596Z,27.56
2023-06-09T15:05:12.257Z,27.65
2023-06-09T15:07:38.939Z,27.56
2023-06-09T15:10:06.012Z,27.92
2023-06-09T15:12:32.860Z,28.12
2023-06-09T15:15:01.531Z,27.89
2023-06-09T15:17:28.197Z,27.32
2023-06-09T15:19:54.694Z,27.30
2023-06-09T15:24:47.991Z,27.84
2023-06-09T15:27:14.558Z,27.34
2023-06-09T15:29:41.131Z,27.65
2023-06-09T15:32:07.853Z,27.87
2023-06-09T15:34:34.362Z,28.48
2023-06-09T15:37:00.878Z,28.45
2023-06-09T15:39:27.637Z,28.86
2023-06-09T15:41:54.119Z,28.90
2023-06-09T15:44:20.812Z,29.65
2023-06-09T15:46:47.439Z,29.59
2023-06-09T15:49:14.018Z,29.03
2023-06-09T15:51:40.504Z,29.68
2023-06-09T15:54:07.206Z,29.51
2023-06-09T15:56:33.969Z,28.96
2023-06-09T15:59:00.434Z,28.86
2023-06-09T16:01:27.496Z,29.30
2023-06-09T16:03:54.190Z,29.33
2023-06-09T16:06:21.316Z,28.87
2023-06-09T16:08:47.908Z,29.28
2023-06-09T16:11:14.414Z,29.26
2023-06-09T16:13:41.815Z,29.35
2023-06-09T16:16:08.486Z,29.70
2023-06-09T16:18:35.086Z,29.59
2023-06-09T16:21:01.614Z,29.38
2023-06-09T16:23:28.115Z,29.33
2023-06-09T16:25:54.656Z,29.05
2023-06-09T16:28:21.224Z,29.73
2023-06-09T16:30:47.833Z,29.65
2023-06-09T16:33:14.496Z,29.66
2023-06-09T16:35:41.100Z,29.49
2023-06-09T16:38:07.750Z,29.06
2023-06-09T16:40:34.358Z,29.43
2023-06-09T16:43:00.860Z,29.05
2023-06-09T16:45:27.774Z,28.37
2023-06-09T16:47:54.383Z,28.42
2023-06-09T16:50:20.961Z,28.26
2023-06-09T16:52:47.409Z,28.86
2023-06-09T16:55:13.937Z,28.90
2023-06-09T16:57:40.480Z,28.83
2023-06-09T17:00:07.499Z,29.18
2023-06-09T17:02:34.277Z,29.51
2023-06-09T17:05:00.876Z,29.38
2023-06-09T17:07:32.347Z,29.10
2023-06-09T17:09:58.963Z,29.48
2023-06-09T17:12:25.798Z,29.43
2023-06-09T17:14:52.348Z,29.77
2023-06-09T17:17:18.825Z,29.44
2023-06-09T17:19:46.423Z,28.50
2023-06-09T17:22:13.110Z,29.06
2023-06-09T17:24:39.576Z,29.35
2023-06-09T17:27:07.075Z,28.99
2023-06-09T17:29:33.629Z,29.04
2023-06-09T17:32:00.211Z,29.03
2023-06-09T17:34:26.794Z,29.04
2023-06-09T17:36:53.274Z,28.74
2023-06-09T17:39:19.855Z,28.64
2023-06-09T17:41:46.380Z,28.43
2023-06-09T17:44:12.973Z,28.71
2023-06-09T17:46:39.584Z,28.34
2023-06-09T17:49:06.064Z,28.49
2023-06-09T17:51:33.522Z,28.76
2023-06-09T17:54:00.416Z,29.02
2023-06-09T17:56:27.698Z,29.05
2023-06-09T17:58:54.168Z,30.01
2023-06-09T18:01:20.962Z,30.01
2023-06-09T18:03:47.693Z,30.96
2023-06-09T18:06:14.253Z,31.40
2023-06-09T18:08:40.746Z,32.08
2023-06-09T18:11:07.336Z,31.69
2023-06-09T18:13:33.882Z,31.84
2023-06-09T18:16:00.494Z,32.07
2023-06-09T18:18:27.059Z,32.59
2023-06-09T18:20:53.619Z,32.30
2023-06-09T18:23:20.268Z,32.99
2023-06-09T18:25:47.543Z,32.84
2023-06-09T18:28:14.288Z,32.95
2023-06-09T18:30:40.770Z,32.97
2023-06-09T18:33:07.359Z,33.10
2023-06-09T18:35:33.994Z,33.47
2023-06-09T18:38:00.515Z,33.67
2023-06-09T18:40:27.003Z,33.43
2023-06-09T18:42:53.584Z,33.51
2023-06-09T18:45:20.449Z,33.79
2023-06-09T18:47:47.327Z,33.92
2023-06-09T18:50:13.950Z,33.85
2023-06-09T18:52:40.536Z,33.68
2023-06-09T18:55:07.604Z,34.15
2023-06-09T18:57:38.045Z,33.99
2023-06-09T19:00:10.178Z,34.19
2023-06-09T19:02:36.834Z,34.23
2023-06-09T19:05:04.066Z,34.17
2023-06-09T19:07:30.597Z,34.43
2023-06-09T19:09:57.129Z,34.31
2023-06-09T19:12:23.857Z,34.42
2023-06-09T19:14:51.050Z,34.72
2023-06-09T19:17:17.734Z,34.59
2023-06-09T19:19:44.432Z,35.08
2023-06-09T19:22:10.938Z,35.18
2023-06-09T19:24:37.649Z,35.22
2023-06-09T19:27:04.211Z,35.24
2023-06-09T19:29:31.022Z,35.31
2023-06-09T19:31:57.503Z,35.47
2023-06-09T19:34:24.033Z,35.41
2023-06-09T19:36:51.226Z,35.37
2023-06-09T19:39:17.861Z,35.66
2023-06-09T19:41:44.627Z,35.73
2023-06-09T19:44:11.318Z,35.78
2023-06-09T19:46:38.024Z,35.84
2023-06-09T19:49:06.430Z,35.80
2023-06-09T19:51:33.011Z,36.27
2023-06-09T19:54:00.311Z,35.97
2023-06-09T19:56:26.851Z,36.37
2023-06-09T19:58:53.318Z,36.18
2023-06-09T20:01:19.986Z,36.29
2023-06-09T20:03:46.584Z,36.56
2023-06-09T20:06:13.203Z,36.50
2023-06-09T20:08:39.711Z,36.64
2023-06-09T20:11:06.159Z,36.58
2023-06-09T20:13:32.680Z,36.80
2023-06-09T20:16:00.247Z,36.88
2023-06-09T20:18:26.880Z,36.84
2023-06-09T20:20:53.628Z,36.88
2023-06-09T20:23:24.649Z,36.94
2023-06-09T20:25:51.395Z,37.24
2023-06-09T20:28:17.901Z,37.33
2023-06-09T20:30:44.407Z,37.50
2023-06-09T20:33:11.041Z,37.51
2023-06-09T20:35:37.599Z,37.47
2023-06-09T20:38:04.171Z,37.86
2023-06-09T20:40:31.107Z,37.98
2023-06-09T20:42:57.701Z,38.21
2023-06-09T20:45:25.015Z,38.38
2023-06-09T20:47:52.294Z,38.53
2023-06-09T20:50:19.143Z,38.59
2023-06-09T20:52:47.806Z,38.69
2023-06-09T20:55:15.127Z,38.96
2023-06-09T20:57:41.750Z,39.15
2023-06-09T21:00:08.676Z,39.13
2023-06-09T21:02:36.546Z,38.95
2023-06-09T21:05:04.409Z,39.00
2023-06-09T21:07:31.451Z,39.49
2023-06-09T21:09:58.093Z,39.29
2023-06-09T21:12:25.159Z,39.28
2023-06-09T21:14:51.728Z,39.47
2023-06-09T21:17:18.238Z,39.69
2023-06-09T21:19:44.909Z,40.15
2023-06-09T21:22:11.567Z,40.02
2023-06-09T21:24:38.060Z,40.50
2023-06-09T21:27:04.881Z,40.67
2023-06-09T21:29:31.393Z,40.39
2023-06-09T21:31:57.963Z,39.97
2023-06-09T21:34:24.508Z,40.64
2023-06-09T21:36:51.143Z,40.42
2023-06-09T21:39:17.758Z,40.62
2023-06-09T21:41:44.266Z,40.67
2023-06-09T21:44:10.809Z,40.56
2023-06-09T21:46:37.336Z,40.62
2023-06-09T21:49:03.866Z,40.74
2023-06-09T21:51:30.619Z,40.30
2023-06-09T21:53:57.142Z,40.48
2023-06-09T21:56:23.721Z,40.80
2023-06-09T21:58:50.296Z,40.63
2023-06-09T22:01:16.929Z,40.77
2023-06-09T22:03:43.447Z,41.20
2023-06-09T22:06:11.314Z,41.02
2023-06-09T22:08:39.354Z,41.24
2023-06-09T22:11:06.082Z,41.17
2023-06-09T22:13:33.570Z,41.13
2023-06-09T22:16:00.155Z,41.31
2023-06-09T22:18:26.643Z,41.63
2023-06-09T22:21:07.378Z,41.54
2023-06-09T22:23:33.929Z,41.75
2023-06-09T22:26:00.425Z,41.92
2023-06-09T22:28:26.993Z,41.83
2023-06-09T22:30:53.527Z,41.92
2023-06-09T22:33:19.996Z,42.08
2023-06-09T22:35:46.542Z,42.59
2023-06-09T22:38:13.191Z,42.89
2023-06-09T22:40:39.697Z,42.98
2023-06-09T22:43:06.453Z,42.90
2023-06-09T22:45:32.948Z,42.92
2023-06-09T22:47:59.559Z,42.84
2023-06-09T22:50:26.254Z,42.66
2023-06-09T22:52:52.807Z,42.67
2023-06-09T22:55:19.649Z,42.88
2023-06-09T22:57:48.243Z,42.90
2023-06-09T23:00:15.934Z,43.21
2023-06-09T23:02:42.984Z,42.96
2023-06-09T23:05:11.740Z,43.17
2023-06-09T23:07:38.631Z,43.50
2023-06-09T23:10:06.176Z,43.50
2023-06-09T23:12:32.792Z,43.31
2023-06-09T23:15:06.166Z,42.92
2023-06-09T23:17:34.200Z,43.35
2023-06-09T23:20:01.610Z,42.96
2023-06-09T23:22:30.853Z,43.45
2023-06-09T23:24:57.424Z,43.48
2023-06-09T23:27:24.009Z,43.39
2023-06-09T23:29:50.541Z,43.59
2023-06-09T23:32:17.092Z,43.31
2023-06-09T23:34:43.790Z,43.36
2023-06-09T23:37:11.092Z,43.54
2023-06-09T23:39:37.662Z,43.68
2023-06-09T23:42:04.297Z,43.74
2023-06-09T23:44:30.903Z,44.08
2023-06-09T23:46:57.429Z,44.07
2023-06-09T23:49:24.012Z,44.03
2023-06-09T23:51:50.607Z,44.15
2023-06-09T23:54:17.104Z,44.22
2023-06-09T23:56:45.662Z,44.32
2023-06-09T23:59:12.664Z,44.06
